Time;durP1;ratioP1;P1;durP2;ratioP2;P2;SDS_P1;SDS_P2;PMS_P1;PMS_P2;Temp;Humidity;BMP_temperature;BMP_pressure;BME280_temperature;BME280_humidity;BME280_pressure;Samples;Min_cycle;Max_cycle;Signal;HPM_P1;HPM_P2
2022/04/01 00:00:14;;;;;;;19.35;9.95;;;-0.20;99.90;;;;;;5019271;28;20081;-74
2022/04/01 00:02:44;;;;;;;18.55;13.38;;;-0.20;99.90;;;;;;5020607;28;20368;-73
2022/04/01 00:05:11;;;;;;;16.85;12.52;;;-0.30;99.90;;;;;;5001960;28;20049;-74
2022/04/01 00:07:41;;;;;;;18.27;11.30;;;-0.30;99.90;;;;;;4986688;28;20042;-74
2022/04/01 00:10:09;;;;;;;16.98;12.43;;;-0.30;99.90;;;;;;5020198;28;20099;-74
2022/04/01 00:12:43;;;;;;;16.77;11.60;;;-0.30;99.90;;;;;;5003259;28;20167;-74
2022/04/01 00:15:12;;;;;;;;;;;-0.30;99.90;;;;;;5004214;28;20061;-74
2022/04/01 00:17:40;;;;;;;11.85;7.90;;;-0.40;99.90;;;;;;5002702;28;20028;-73
2022/04/01 00:20:09;;;;;;;13.25;8.57;;;-0.40;99.90;;;;;;4993897;23;20045;-74
2022/04/01 00:22:36;;;;;;;13.30;10.25;;;-0.40;99.90;;;;;;5012860;28;20053;-74
2022/04/01 00:25:04;;;;;;;10.98;7.88;;;-0.40;99.90;;;;;;5021352;28;20104;-74
2022/04/01 00:27:31;;;;;;;12.52;9.10;;;-0.50;99.90;;;;;;5010294;28;20498;-74
2022/04/01 00:29:58;;;;;;;10.43;8.05;;;-0.50;99.90;;;;;;5020323;28;20041;-74
2022/04/01 00:32:25;;;;;;;18.23;11.70;;;-0.50;99.90;;;;;;5002843;28;20404;-74
2022/04/01 00:34:52;;;;;;;17.42;9.77;;;-0.50;99.90;;;;;;5020684;28;20143;-73
2022/04/01 00:37:18;;;;;;;14.30;9.77;;;-0.50;99.90;;;;;;5020024;28;20053;-74
2022/04/01 00:39:45;;;;;;;12.45;7.80;;;-0.50;99.90;;;;;;5003221;28;20050;-73
2022/04/01 00:42:12;;;;;;;15.30;10.32;;;-0.50;99.90;;;;;;4985338;28;20135;-73
2022/04/01 00:44:40;;;;;;;13.40;9.73;;;-0.50;99.90;;;;;;5020909;28;20103;-74
2022/04/01 00:47:08;;;;;;;13.63;9.48;;;-0.50;99.90;;;;;;5019864;28;20046;-73
2022/04/01 00:49:36;;;;;;;18.95;8.65;;;-0.50;99.90;;;;;;5029364;28;20049;-73
2022/04/01 00:52:09;;;;;;;11.02;8.13;;;-0.50;99.90;;;;;;5013759;28;20734;-73
2022/04/01 00:54:37;;;;;;;11.23;7.95;;;-0.50;99.90;;;;;;5008828;28;20045;-73
2022/04/01 00:57:06;;;;;;;11.82;8.82;;;-0.40;99.90;;;;;;5010250;28;20579;-73
2022/04/01 00:59:32;;;;;;;11.95;8.30;;;-0.50;99.90;;;;;;5022012;28;20550;-73
2022/04/01 01:02:00;;;;;;;9.43;7.00;;;-0.50;99.90;;;;;;5021891;28;20099;-73
2022/04/01 01:04:27;;;;;;;11.68;8.82;;;-0.50;99.90;;;;;;5022507;28;20366;-73
2022/04/01 01:06:57;;;;;;;9.05;5.25;;;-0.50;99.90;;;;;;5021947;28;20049;-74
2022/04/01 01:09:25;;;;;;;11.38;8.45;;;-0.50;99.90;;;;;;5022629;28;20144;-74
2022/04/01 01:11:53;;;;;;;10.38;6.20;;;-0.50;99.90;;;;;;5021906;28;20671;-73
2022/04/01 01:14:31;;;;;;;16.15;8.73;;;-0.50;99.90;;;;;;5006748;28;20049;-73
2022/04/01 01:16:58;;;;;;;11.95;7.63;;;-0.50;99.90;;;;;;5005061;28;20052;-73
2022/04/01 01:19:27;;;;;;;12.30;8.43;;;-0.50;99.90;;;;;;5006558;28;20145;-73
2022/04/01 01:21:56;;;;;;;13.20;7.47;;;-0.50;99.90;;;;;;5015952;28;20136;-74
2022/04/01 01:24:37;;;;;;;9.75;7.32;;;-0.50;99.90;;;;;;5031296;28;20427;-74
2022/04/01 01:27:06;;;;;;;13.80;8.55;;;-0.50;99.90;;;;;;5019786;28;20049;-74
2022/04/01 01:29:37;;;;;;;10.90;7.45;;;-0.50;99.90;;;;;;5023296;28;20046;-74
2022/04/01 01:32:10;;;;;;;10.77;7.47;;;-0.50;99.90;;;;;;5021359;28;20046;-74
2022/04/01 01:34:39;;;;;;;14.75;9.32;;;-0.50;99.90;;;;;;5022712;28;20060;-74
2022/04/01 01:37:10;;;;;;;13.85;8.90;;;-0.50;99.90;;;;;;5021848;28;20111;-74
2022/04/01 01:39:37;;;;;;;11.20;8.70;;;-0.50;99.90;;;;;;5023628;28;20053;-75
2022/04/01 01:42:06;;;;;;;12.65;8.85;;;-0.50;99.90;;;;;;5020593;28;20511;-74
2022/04/01 01:44:33;;;;;;;10.85;8.88;;;-0.40;99.90;;;;;;5005085;28;20046;-75
2022/04/01 01:47:00;;;;;;;9.07;6.00;;;-0.40;99.90;;;;;;5005020;28;20041;-75
2022/04/01 01:49:27;;;;;;;11.30;7.32;;;-0.50;99.90;;;;;;5025154;28;20049;-74
2022/04/01 01:54:43;;;;;;;6.40;4.88;;;-0.50;99.90;;;;;;5009588;28;20061;-74
2022/04/01 01:57:22;;;;;;;8.77;6.72;;;-0.50;99.90;;;;;;5004759;28;20079;-74
2022/04/01 01:59:51;;;;;;;8.80;5.20;;;-0.60;99.90;;;;;;5004983;28;20064;-74
2022/04/01 02:02:19;;;;;;;8.27;5.90;;;-0.60;99.90;;;;;;5021422;28;20104;-74
2022/04/01 02:04:46;;;;;;;9.48;7.07;;;-0.60;99.90;;;;;;5012950;28;20103;-74
2022/04/01 02:07:13;;;;;;;9.65;4.75;;;-0.60;99.90;;;;;;5002639;28;20044;-74
2022/04/01 02:09:43;;;;;;;8.82;5.50;;;-0.70;99.90;;;;;;5005111;28;20051;-73
2022/04/01 02:12:11;;;;;;;9.32;6.80;;;-0.60;99.90;;;;;;5004882;28;20081;-74
2022/04/01 02:14:38;;;;;;;9.63;6.38;;;-0.60;99.90;;;;;;5010905;28;20057;-74
2022/04/01 02:17:05;;;;;;;9.07;6.05;;;-0.60;99.90;;;;;;5021819;28;20666;-73
2022/04/01 02:19:32;;;;;;;11.55;7.40;;;-0.70;99.90;;;;;;5024099;28;20091;-73
2022/04/01 02:22:01;;;;;;;11.13;7.68;;;-0.70;99.90;;;;;;5018298;28;20344;-73
2022/04/01 02:24:31;;;;;;;9.18;7.18;;;-0.60;99.90;;;;;;4995189;28;20067;-73
2022/04/01 02:26:57;;;;;;;7.35;6.53;;;-0.60;99.90;;;;;;5002317;28;20057;-73
2022/04/01 02:29:25;;;;;;;8.68;6.95;;;-0.60;99.90;;;;;;5004660;28;20053;-73
2022/04/01 02:32:12;;;;;;;9.20;5.30;;;-0.60;99.90;;;;;;5021655;28;20127;-73
2022/04/01 02:34:59;;;;;;;10.48;7.03;;;-0.60;99.90;;;;;;5022886;28;20049;-73
2022/04/01 02:37:25;;;;;;;7.60;5.07;;;-0.70;99.90;;;;;;5003065;28;20157;-73
2022/04/01 02:39:55;;;;;;;8.68;5.65;;;-0.70;99.90;;;;;;4994396;28;20232;-73
2022/04/01 02:42:27;;;;;;;9.68;6.60;;;-0.70;99.90;;;;;;5021441;28;20470;-73
2022/04/01 02:44:54;;;;;;;9.27;7.47;;;-0.70;99.90;;;;;;4998120;28;20070;-73
2022/04/01 02:47:20;;;;;;;8.55;6.80;;;-0.60;99.90;;;;;;5025040;28;20480;-73
2022/04/01 02:49:48;;;;;;;8.15;4.13;;;-0.70;99.90;;;;;;5005105;28;20422;-73
2022/04/01 02:52:14;;;;;;;9.07;6.47;;;-0.70;99.90;;;;;;5014323;28;20049;-73
2022/04/01 02:54:41;;;;;;;6.13;4.55;;;-0.70;99.90;;;;;;4991406;28;20738;-73
2022/04/01 02:57:11;;;;;;;8.55;7.00;;;-0.70;99.90;;;;;;5006098;28;20045;-73
2022/04/01 02:59:39;;;;;;;8.65;5.15;;;-0.70;99.90;;;;;;5016301;28;20061;-72
2022/04/01 03:02:07;;;;;;;9.82;6.93;;;-0.70;99.90;;;;;;5018855;28;20099;-72
2022/04/01 03:04:34;;;;;;;9.27;7.15;;;-0.70;99.90;;;;;;5018139;28;20424;-73
2022/04/01 03:07:02;;;;;;;7.90;5.85;;;-0.70;99.90;;;;;;5018150;28;20049;-73
2022/04/01 03:09:31;;;;;;;8.93;6.20;;;-0.70;99.90;;;;;;5002883;28;20136;-73
2022/04/01 03:12:17;;;;;;;10.45;6.63;;;-0.70;99.90;;;;;;5017921;28;20085;-73
2022/04/01 03:14:48;;;;;;;6.60;5.03;;;-0.70;99.90;;;;;;5020384;28;20399;-74
2022/04/01 03:17:33;;;;;;;11.50;7.75;;;-0.80;99.90;;;;;;5020291;28;20063;-74
2022/04/01 03:20:13;;;;;;;6.78;5.47;;;-0.70;99.90;;;;;;5007900;28;20637;-74
2022/04/01 03:22:43;;;;;;;6.78;5.70;;;-0.70;99.90;;;;;;5013383;28;20129;-74
2022/04/01 03:25:14;;;;;;;8.70;6.82;;;-0.70;99.90;;;;;;5004722;28;20273;-74
2022/04/01 03:28:04;;;;;;;7.40;5.68;;;-0.70;99.90;;;;;;5012094;28;20136;-74
2022/04/01 03:30:31;;;;;;;10.32;7.32;;;-0.80;99.90;;;;;;5001839;28;20046;-74
2022/04/01 03:32:57;;;;;;;9.23;6.93;;;-0.80;99.90;;;;;;5002782;28;20156;-74
2022/04/01 03:35:24;;;;;;;9.13;6.05;;;-0.70;99.90;;;;;;5002175;28;20045;-74
2022/04/01 03:37:51;;;;;;;8.85;7.07;;;-0.70;99.90;;;;;;5002571;28;20083;-74
2022/04/01 03:40:19;;;;;;;8.85;6.93;;;-0.80;99.90;;;;;;5000663;28;20049;-72
2022/04/01 03:42:50;;;;;;;8.65;6.57;;;-0.70;99.90;;;;;;4982739;28;20515;-75
2022/04/01 03:45:17;;;;;;;11.65;7.22;;;-0.80;99.90;;;;;;4982646;28;20050;-72
2022/04/01 03:48:14;;;;;;;8.85;6.90;;;-0.80;99.90;;;;;;4993738;28;20045;-72
2022/04/01 03:50:45;;;;;;;8.73;5.50;;;-0.90;99.90;;;;;;5005461;28;20115;-72
2022/04/01 03:53:14;;;;;;;8.75;7.03;;;-0.90;99.90;;;;;;4990972;28;20076;-75
2022/04/01 03:55:45;;;;;;;11.77;7.75;;;-0.80;99.90;;;;;;4999289;28;20059;-72
2022/04/01 03:58:48;;;;;;;9.30;7.28;;;-0.90;99.90;;;;;;5011614;28;20051;-72
2022/04/01 04:01:36;;;;;;;10.13;7.20;;;-0.90;99.90;;;;;;5003399;28;20496;-72
2022/04/01 04:04:04;;;;;;;10.13;7.50;;;-0.90;99.90;;;;;;5000261;28;20045;-72
2022/04/01 04:06:35;;;;;;;9.90;7.47;;;-0.90;99.90;;;;;;5000986;28;20060;-72
2022/04/01 04:09:03;;;;;;;10.80;7.32;;;-0.90;99.90;;;;;;5000100;28;20037;-72
2022/04/01 04:11:33;;;;;;;10.48;7.75;;;-1.00;99.90;;;;;;4999914;28;20439;-73
2022/04/01 04:14:33;;;;;;;10.48;5.53;;;-1.00;99.90;;;;;;4984516;28;20663;-72
2022/04/01 04:17:42;;;;;;;9.57;6.90;;;-1.00;99.90;;;;;;5001178;28;20046;-72
2022/04/01 04:20:14;;;;;;;10.50;7.43;;;-1.00;99.90;;;;;;5002429;28;20053;-72
2022/04/01 04:23:41;;;;;;;8.23;6.82;;;-1.00;99.90;;;;;;5009619;28;20052;-73
2022/04/01 04:26:13;;;;;;;9.30;7.45;;;-1.00;99.90;;;;;;4930720;28;20190;-72
2022/04/01 04:28:48;;;;;;;7.65;5.72;;;-1.00;99.90;;;;;;4985382;28;20104;-72
2022/04/01 04:31:36;;;;;;;8.05;5.82;;;-1.00;99.90;;;;;;5003813;28;20723;-72
2022/04/01 04:34:10;;;;;;;9.27;7.47;;;-1.00;99.90;;;;;;5006421;28;20050;-73
2022/04/01 04:36:41;;;;;;;8.52;6.85;;;-1.00;99.90;;;;;;5004070;28;20072;-73
2022/04/01 04:39:15;;;;;;;8.95;6.90;;;-1.00;99.90;;;;;;5004914;28;20056;-73
2022/04/01 04:41:45;;;;;;;9.00;6.43;;;-1.00;99.90;;;;;;5003759;28;20087;-73
2022/04/01 04:44:13;;;;;;;9.15;7.25;;;-1.00;99.90;;;;;;5003938;28;20411;-73
2022/04/01 04:46:43;;;;;;;6.88;5.10;;;-1.10;99.90;;;;;;5004900;28;20427;-73
2022/04/01 04:49:10;;;;;;;10.95;7.68;;;-1.10;99.90;;;;;;5006345;28;20049;-72
2022/04/01 04:51:41;;;;;;;11.15;7.72;;;-1.10;99.90;;;;;;5015904;28;20478;-72
2022/04/01 04:54:19;;;;;;;10.75;7.35;;;-1.10;99.90;;;;;;5015670;28;20056;-72
2022/04/01 04:57:02;;;;;;;10.60;7.93;;;-1.10;99.90;;;;;;5006112;28;20045;-73
2022/04/01 04:59:30;;;;;;;9.15;7.03;;;-1.10;99.90;;;;;;5010693;28;20050;-72
2022/04/01 05:02:10;;;;;;;8.20;5.55;;;-1.00;99.90;;;;;;5005225;28;20045;-72
2022/04/01 05:05:05;;;;;;;11.88;8.25;;;-1.10;99.90;;;;;;5004527;28;20281;-72
2022/04/01 05:08:19;;;;;;;9.05;7.45;;;-1.00;99.90;;;;;;4989010;28;20171;-72
2022/04/01 05:11:26;;;;;;;9.50;6.90;;;-1.10;99.90;;;;;;5004780;28;20057;-72
2022/04/01 05:14:05;;;;;;;9.68;7.40;;;-1.00;99.90;;;;;;4988404;28;20267;-73
2022/04/01 05:16:54;;;;;;;11.20;8.07;;;-1.10;99.90;;;;;;4989145;28;20056;-73
2022/04/01 05:19:29;;;;;;;11.18;7.15;;;-1.10;99.90;;;;;;4985865;28;20057;-73
2022/04/01 05:22:06;;;;;;;9.70;6.35;;;-1.10;99.90;;;;;;4984932;28;20610;-72
2022/04/01 05:24:48;;;;;;;10.73;7.63;;;-1.10;99.90;;;;;;5000556;28;20049;-72
2022/04/01 05:27:28;;;;;;;11.63;7.93;;;-1.10;99.90;;;;;;5011612;28;20156;-72
2022/04/01 05:30:05;;;;;;;10.45;7.57;;;-1.00;99.90;;;;;;4995341;28;20049;-73
2022/04/01 05:32:38;;;;;;;12.18;8.18;;;-1.00;99.90;;;;;;5021577;28;20107;-73
2022/04/01 05:35:06;;;;;;;11.18;6.88;;;-1.00;99.90;;;;;;5007252;28;20128;-73
2022/04/01 05:37:35;;;;;;;12.35;9.02;;;-1.10;99.90;;;;;;4989205;28;20554;-73
2022/04/01 05:40:05;;;;;;;12.20;8.35;;;-1.00;99.90;;;;;;5004387;28;20144;-71
2022/04/01 05:42:36;;;;;;;13.45;9.35;;;-1.10;99.90;;;;;;5011754;28;20494;-75
2022/04/01 05:45:27;;;;;;;11.90;8.30;;;-1.00;99.90;;;;;;5038638;28;20057;-72
2022/04/01 05:47:56;;;;;;;11.90;8.70;;;-1.00;99.90;;;;;;5024533;28;20554;-72
2022/04/01 05:50:28;;;;;;;13.20;9.23;;;-1.00;99.90;;;;;;5009142;28;20148;-72
2022/04/01 05:52:56;;;;;;;7.82;6.13;;;-0.90;99.90;;;;;;5004962;28;20052;-72
2022/04/01 05:55:25;;;;;;;9.70;7.25;;;-1.00;99.90;;;;;;5003052;28;20081;-72
2022/04/01 05:57:55;;;;;;;13.20;8.85;;;-1.10;99.90;;;;;;5012875;28;20049;-72
2022/04/01 06:00:22;;;;;;;13.07;9.20;;;-1.10;99.90;;;;;;4987973;28;20052;-72
2022/04/01 06:03:08;;;;;;;16.05;10.20;;;-1.10;99.90;;;;;;5004369;28;20045;-73
2022/04/01 06:05:43;;;;;;;13.20;8.02;;;-1.00;99.90;;;;;;5004503;28;20748;-72
2022/04/01 06:08:27;;;;;;;14.20;8.55;;;-1.00;99.90;;;;;;5005202;28;20049;-72
2022/04/01 06:11:01;;;;;;;13.45;8.18;;;-1.00;99.90;;;;;;5004241;28;20045;-72
2022/04/01 06:14:20;;;;;;;9.93;6.30;;;-1.10;99.90;;;;;;4991994;28;20041;-72
2022/04/01 06:17:32;;;;;;;8.80;6.05;;;-1.10;99.90;;;;;;5022008;28;20050;-72
2022/04/01 06:20:07;;;;;;;9.85;6.55;;;-1.20;99.90;;;;;;5030743;23;20041;-72
2022/04/01 06:22:42;;;;;;;13.70;8.88;;;-1.20;99.90;;;;;;5003374;28;20061;-73
2022/04/01 06:25:15;;;;;;;8.75;6.28;;;-1.10;99.90;;;;;;5005441;28;20099;-72
2022/04/01 06:27:48;;;;;;;13.80;8.80;;;-1.20;99.90;;;;;;5012534;28;20279;-72
2022/04/01 06:30:20;;;;;;;10.10;6.72;;;-1.30;99.90;;;;;;5004050;28;20661;-73
2022/04/01 06:33:11;;;;;;;10.85;8.23;;;-1.30;99.90;;;;;;5004672;28;20049;-72
2022/04/01 06:36:03;;;;;;;45.03;12.32;;;-1.20;99.90;;;;;;4990452;28;20037;-73
2022/04/01 06:39:01;;;;;;;13.38;8.38;;;-1.20;99.90;;;;;;4989014;28;20140;-72
2022/04/01 06:41:35;;;;;;;10.38;6.85;;;-1.20;99.90;;;;;;5003065;28;20046;-73
2022/04/01 06:44:11;;;;;;;14.82;10.40;;;-1.30;99.90;;;;;;5018689;28;20824;-73
2022/04/01 06:47:07;;;;;;;12.65;8.00;;;-1.30;99.90;;;;;;5022047;28;20053;-74
2022/04/01 06:49:33;;;;;;;11.35;8.07;;;-1.30;99.90;;;;;;5017650;28;20057;-73
2022/04/01 06:52:26;;;;;;;10.95;7.07;;;-1.30;99.90;;;;;;5039622;28;20053;-73
2022/04/01 06:55:11;;;;;;;14.98;10.63;;;-1.40;99.90;;;;;;5028792;28;20661;-73
2022/04/01 06:58:11;;;;;;;15.27;11.02;;;-1.20;99.90;;;;;;4995590;28;20053;-79
2022/04/01 07:00:44;;;;;;;14.32;10.57;;;-1.20;99.90;;;;;;5002865;28;20053;-76
2022/04/01 07:03:11;;;;;;;10.85;7.20;;;-1.10;99.90;;;;;;5012000;28;20041;-75
2022/04/01 07:05:39;;;;;;;12.50;9.43;;;-1.10;99.90;;;;;;5020527;28;20053;-76
2022/04/01 07:08:07;;;;;;;17.52;9.52;;;-1.10;99.90;;;;;;5004460;28;20104;-76
2022/04/01 07:10:34;;;;;;;11.95;8.77;;;-1.00;99.90;;;;;;5021724;28;20363;-76
2022/04/01 07:13:01;;;;;;;10.52;8.30;;;-1.00;99.90;;;;;;5008737;28;20064;-76
2022/04/01 07:15:27;;;;;;;7.60;4.95;;;-0.90;99.90;;;;;;5014780;28;20103;-76
2022/04/01 07:17:55;;;;;;;13.25;9.00;;;-0.90;99.90;;;;;;5002821;28;20315;-76
2022/04/01 07:20:21;;;;;;;12.90;8.82;;;-1.00;99.90;;;;;;4987303;28;20127;-76
2022/04/01 07:22:51;;;;;;;19.35;14.27;;;-1.00;99.90;;;;;;5003989;28;20049;-76
2022/04/01 07:25:19;;;;;;;18.83;13.40;;;-0.90;99.90;;;;;;5008403;28;20478;-76
2022/04/01 07:27:46;;;;;;;10.77;7.70;;;-0.80;99.90;;;;;;5022140;28;20057;-76
2022/04/01 07:30:13;;;;;;;12.93;10.50;;;-0.80;99.90;;;;;;4995469;28;20095;-76
2022/04/01 07:32:40;;;;;;;13.55;10.02;;;-0.90;99.90;;;;;;4984623;28;20501;-79
2022/04/01 07:35:12;;;;;;;13.85;8.85;;;-0.90;99.90;;;;;;4981999;28;20253;-75
2022/04/01 07:37:39;;;;;;;10.98;8.05;;;-0.90;99.90;;;;;;5015445;28;20069;-75
2022/04/01 07:40:24;;;;;;;18.42;14.20;;;-1.00;99.90;;;;;;5001916;28;20140;-76
2022/04/01 07:42:52;;;;;;;11.20;9.15;;;-0.90;99.90;;;;;;4984685;28;20053;-76
2022/04/01 07:45:20;;;;;;;10.73;9.65;;;-1.00;99.90;;;;;;4987042;28;20076;-76
2022/04/01 07:47:48;;;;;;;11.18;9.18;;;-1.10;99.90;;;;;;5012520;28;20130;-76
2022/04/01 07:50:17;;;;;;;8.73;7.07;;;-1.10;99.90;;;;;;5036569;28;20238;-76
2022/04/01 07:52:44;;;;;;;12.38;9.35;;;-1.10;99.90;;;;;;5008433;28;20041;-75
2022/04/01 07:55:16;;;;;;;9.48;7.18;;;-1.20;99.90;;;;;;5005608;28;20527;-75
2022/04/01 07:57:43;;;;;;;10.98;6.88;;;-1.20;99.90;;;;;;5006079;28;20063;-76
2022/04/01 08:00:15;;;;;;;10.18;6.75;;;-1.20;99.90;;;;;;4987645;28;20056;-77
2022/04/01 08:02:41;;;;;;;10.65;8.07;;;-1.20;99.90;;;;;;5004362;28;20086;-79
2022/04/01 08:05:09;;;;;;;9.07;6.80;;;-1.30;99.90;;;;;;5003971;28;20049;-77
2022/04/01 08:07:36;;;;;;;9.88;7.13;;;-1.30;99.90;;;;;;5008044;28;20041;-77
2022/04/01 08:10:04;;;;;;;8.38;6.10;;;-1.30;99.90;;;;;;5007897;28;20542;-76
2022/04/01 08:12:40;;;;;;;12.88;8.45;;;-1.20;99.90;;;;;;5007943;28;20045;-76
2022/04/01 08:15:07;;;;;;;9.52;6.60;;;-1.20;99.90;;;;;;5007453;28;20057;-74
2022/04/01 08:17:35;;;;;;;12.23;7.38;;;-1.20;99.90;;;;;;5014339;28;20159;-74
2022/04/01 08:20:03;;;;;;;12.88;8.93;;;-1.10;99.90;;;;;;5036777;28;20130;-74
2022/04/01 08:22:30;;;;;;;11.32;8.07;;;-1.10;99.90;;;;;;5026886;28;20072;-75
2022/04/01 08:24:57;;;;;;;12.18;7.78;;;-1.00;99.90;;;;;;5026508;28;20091;-75
2022/04/01 08:27:24;;;;;;;14.02;8.63;;;-1.20;99.90;;;;;;5013064;28;20057;-75
2022/04/01 08:29:55;;;;;;;14.90;9.40;;;-1.20;99.90;;;;;;4988120;28;20077;-75
2022/04/01 08:32:22;;;;;;;15.82;9.38;;;-1.10;99.90;;;;;;5004689;28;20104;-75
2022/04/01 08:34:49;;;;;;;25.02;13.48;;;-1.10;99.90;;;;;;5019492;28;20060;-75
2022/04/01 08:37:16;;;;;;;14.57;9.30;;;-1.20;99.90;;;;;;5023679;28;20057;-75
2022/04/01 08:39:48;;;;;;;13.10;8.27;;;-1.20;99.90;;;;;;5005689;28;20136;-76
2022/04/01 08:42:15;;;;;;;13.48;10.48;;;-1.10;99.90;;;;;;5005218;28;20147;-76
2022/04/01 08:44:48;;;;;;;12.93;10.23;;;-1.10;99.90;;;;;;5005023;28;20075;-76
2022/04/01 08:47:15;;;;;;;15.38;10.13;;;-1.00;99.90;;;;;;5030897;28;20592;-76
2022/04/01 08:49:42;;;;;;;11.88;7.07;;;-1.00;99.90;;;;;;5024630;28;20731;-76
2022/04/01 08:52:08;;;;;;;10.95;8.18;;;-1.10;99.90;;;;;;5005430;28;20103;-77
2022/04/01 08:54:35;;;;;;;9.98;7.57;;;-1.10;99.90;;;;;;5023473;28;20064;-74
2022/04/01 08:57:05;;;;;;;7.68;6.28;;;-1.10;99.90;;;;;;5011018;28;20556;-75
2022/04/01 08:59:32;;;;;;;14.98;10.32;;;-1.20;99.90;;;;;;5008584;28;20110;-76
2022/04/01 09:02:10;;;;;;;12.13;8.90;;;-1.20;99.90;;;;;;5005555;28;20558;-76
2022/04/01 09:04:37;;;;;;;9.68;7.20;;;-1.10;99.90;;;;;;4983730;28;20073;-74
2022/04/01 09:07:12;;;;;;;11.60;8.77;;;-1.00;99.90;;;;;;5002619;28;20104;-76
2022/04/01 09:09:39;;;;;;;8.18;6.75;;;-0.90;99.90;;;;;;4985538;28;20046;-76
2022/04/01 09:12:16;;;;;;;11.25;8.27;;;-0.90;99.90;;;;;;5018975;28;20087;-76
2022/04/01 09:14:51;;;;;;;7.65;6.28;;;-0.80;99.90;;;;;;5022129;28;20045;-75
2022/04/01 09:17:18;;;;;;;11.60;8.18;;;-1.00;99.90;;;;;;5011877;28;20250;-76
2022/04/01 09:19:49;;;;;;;13.50;8.95;;;-1.00;99.90;;;;;;5011820;28;20140;-77
2022/04/01 09:22:18;;;;;;;12.48;9.80;;;-1.00;99.90;;;;;;5005532;28;20357;-78
2022/04/01 09:25:08;;;;;;;11.40;8.65;;;-0.90;99.90;;;;;;5022754;28;20045;-76
2022/04/01 09:27:39;;;;;;;67.68;31.73;;;-0.80;99.90;;;;;;4994961;28;20131;-76
2022/04/01 09:30:09;;;;;;;12.27;10.00;;;-0.80;99.90;;;;;;5021952;28;20604;-76
2022/04/01 09:32:51;;;;;;;17.60;14.20;;;-0.90;99.90;;;;;;5022010;28;20054;-75
2022/04/01 09:35:22;;;;;;;11.65;8.20;;;-0.90;99.90;;;;;;5011109;28;20424;-78
2022/04/01 09:37:52;;;;;;;9.57;7.68;;;-0.80;99.90;;;;;;5023933;28;20517;-78
2022/04/01 09:40:21;;;;;;;10.35;7.38;;;-0.70;99.90;;;;;;5005345;28;20148;-77
2022/04/01 09:42:51;;;;;;;12.15;7.68;;;-0.80;99.90;;;;;;5019825;28;20064;-77
2022/04/01 09:45:23;;;;;;;12.05;8.57;;;-0.80;99.90;;;;;;5004392;28;20080;-77
2022/04/01 09:48:02;;;;;;;12.48;8.85;;;-0.80;99.90;;;;;;5030960;28;20037;-75
2022/04/01 09:50:32;;;;;;;13.45;8.48;;;-0.60;99.90;;;;;;5000433;28;20103;-77
2022/04/01 09:53:26;;;;;;;11.77;7.45;;;-0.70;99.90;;;;;;5022315;28;20041;-76
2022/04/01 09:55:53;;;;;;;9.63;7.30;;;-0.80;99.90;;;;;;5022514;28;20064;-76
2022/04/01 09:58:22;;;;;;;15.73;11.55;;;-0.80;99.90;;;;;;4988426;28;20246;-76
2022/04/01 10:00:51;;;;;;;20.42;17.90;;;-0.80;99.90;;;;;;5003502;28;20065;-76
2022/04/01 10:03:19;;;;;;;13.32;9.70;;;-0.80;99.90;;;;;;5003497;28;20057;-76
2022/04/01 10:05:47;;;;;;;11.43;9.32;;;-0.60;99.90;;;;;;5004362;28;20140;-74
2022/04/01 10:08:15;;;;;;;11.02;8.30;;;-0.80;99.90;;;;;;5021023;28;20088;-74
2022/04/01 10:10:43;;;;;;;17.38;8.82;;;-0.80;99.90;;;;;;5021383;28;20049;-76
2022/04/01 10:13:32;;;;;;;9.52;7.05;;;-1.00;99.90;;;;;;5004663;28;20099;-76
2022/04/01 10:16:00;;;;;;;12.30;10.13;;;-1.10;99.90;;;;;;5004613;28;20127;-76
2022/04/01 10:18:48;;;;;;;9.95;7.82;;;-1.00;99.90;;;;;;5013385;28;20054;-75
2022/04/01 10:21:19;;;;;;;12.40;9.65;;;-1.00;99.90;;;;;;5023071;28;20052;-76
2022/04/01 10:24:01;;;;;;;9.50;7.55;;;-1.00;99.90;;;;;;5017119;28;20057;-75
2022/04/01 10:26:32;;;;;;;11.02;8.80;;;-0.90;99.90;;;;;;5021023;28;20059;-73
2022/04/01 10:29:02;;;;;;;13.98;8.85;;;-0.80;99.90;;;;;;5003158;28;20057;-73
2022/04/01 10:31:28;;;;;;;15.38;10.43;;;-0.80;99.90;;;;;;5021165;28;20053;-73
2022/04/01 10:34:18;;;;;;;14.38;9.52;;;-0.60;99.90;;;;;;5022314;28;20144;-73
2022/04/01 10:36:59;;;;;;;11.98;9.60;;;-0.60;99.90;;;;;;5014149;28;20049;-73
2022/04/01 10:39:28;;;;;;;11.75;9.18;;;-0.60;99.90;;;;;;5021076;28;20053;-76
2022/04/01 10:42:25;;;;;;;13.63;12.07;;;-0.30;99.90;;;;;;5031165;28;20057;-76
2022/04/01 10:44:57;;;;;;;13.35;11.13;;;-0.40;99.90;;;;;;4987971;28;20048;-75
2022/04/01 10:53:48;;;;;;;13.45;9.85;;;-0.60;99.90;;;;;;5028848;28;20057;-74
2022/04/01 10:56:24;;;;;;;11.20;7.93;;;-0.60;99.90;;;;;;5008123;28;20055;-73
2022/04/01 10:59:15;;;;;;;14.75;7.90;;;-0.60;99.90;;;;;;5001141;28;20108;-74
2022/04/01 11:01:51;;;;;;;9.32;7.85;;;-0.60;99.90;;;;;;5001995;28;20045;-73
2022/04/01 11:04:19;;;;;;;23.30;15.98;;;-0.50;99.90;;;;;;4984829;28;20056;-73
2022/04/01 11:07:02;;;;;;;30.48;14.38;;;-0.60;99.90;;;;;;5019871;28;20548;-73
2022/04/01 11:09:41;;;;;;;14.10;7.75;;;-0.30;99.90;;;;;;5002645;28;20087;-73
2022/04/01 11:15:11;;;;;;;16.63;9.65;;;-0.50;99.90;;;;;;5021177;28;20045;-73
2022/04/01 11:17:41;;;;;;;16.60;10.13;;;-0.60;99.90;;;;;;5019727;28;20049;-73
2022/04/01 11:20:21;;;;;;;18.98;11.32;;;-0.30;99.90;;;;;;5019303;28;20292;-73
2022/04/01 11:22:57;;;;;;;28.13;13.85;;;-0.30;99.90;;;;;;5002020;28;20053;-72
2022/04/01 11:25:24;;;;;;;32.72;15.45;;;-0.10;99.90;;;;;;5019909;28;20589;-71
2022/04/01 11:27:56;;;;;;;57.92;22.75;;;-0.10;99.90;;;;;;5001784;28;20103;-72
2022/04/01 11:30:34;;;;;;;93.20;34.40;;;-0.10;99.90;;;;;;5018259;28;20049;-73
2022/04/01 11:33:18;;;;;;;46.90;19.98;;;-0.10;99.90;;;;;;5018486;28;20645;-73
2022/04/01 11:35:49;;;;;;;18.57;10.47;;;-0.20;99.90;;;;;;5020696;28;20239;-71
2022/04/01 11:38:19;;;;;;;69.25;32.47;;;-0.20;99.90;;;;;;5018038;28;20539;-71
2022/04/01 11:40:49;;;;;;;136.32;65.63;;;-0.10;99.90;;;;;;5002620;28;20084;-72
2022/04/01 11:43:17;;;;;;;118.80;58.95;;;-0.10;99.90;;;;;;5020649;28;20111;-71
2022/04/01 11:45:47;;;;;;;44.20;25.20;;;0.00;99.90;;;;;;5002069;28;20555;-71
2022/04/01 11:48:26;;;;;;;58.17;34.55;;;-0.10;99.90;;;;;;5020560;28;20107;-73
2022/04/01 11:50:57;;;;;;;64.53;37.13;;;0.20;99.90;;;;;;5016522;28;20594;-71
2022/04/01 11:53:31;;;;;;;72.90;44.17;;;0.20;99.90;;;;;;5001940;28;20053;-71
2022/04/01 11:56:01;;;;;;;17.70;12.95;;;0.20;99.90;;;;;;5012064;28;20107;-70
2022/04/01 11:58:55;;;;;;;11.00;7.90;;;0.20;99.90;;;;;;5006386;28;20050;-70
2022/04/01 12:01:56;;;;;;;11.07;8.38;;;0.30;99.90;;;;;;5005638;28;20616;-69
2022/04/01 12:04:33;;;;;;;14.32;8.32;;;0.30;99.90;;;;;;5019669;28;20057;-73
2022/04/01 12:09:56;;;;;;;;;;;0.20;99.90;;;;;;5020247;28;20053;-69
2022/04/01 12:12:26;;;;;;;11.20;7.85;;;0.10;99.90;;;;;;5001365;28;19976;-70
2022/04/01 12:14:57;;;;;;;8.65;7.75;;;0.20;99.90;;;;;;5002497;28;20049;-70
2022/04/01 12:17:28;;;;;;;11.90;7.85;;;0.30;99.90;;;;;;5019465;28;20049;-70
2022/04/01 12:22:53;;;;;;;11.00;9.85;;;0.30;99.90;;;;;;4755988;30;20546;-76
2022/04/01 12:25:20;;;;;;;16.02;10.20;;;0.30;99.90;;;;;;4739542;30;20216;-76
2022/04/01 12:28:07;;;;;;;11.93;10.57;;;0.30;99.90;;;;;;4758186;30;20508;-75
2022/04/01 12:30:36;;;;;;;13.85;12.05;;;0.40;99.90;;;;;;4762129;30;20051;-75
2022/04/01 12:33:06;;;;;;;18.17;12.93;;;0.40;99.90;;;;;;4756888;30;20468;-76
2022/04/01 12:35:47;;;;;;;13.25;12.25;;;0.40;99.90;;;;;;4741835;30;20048;-76
2022/04/01 12:38:14;;;;;;;14.90;13.60;;;0.40;99.90;;;;;;4723511;30;20137;-76
2022/04/01 12:40:45;;;;;;;17.33;14.75;;;0.40;99.90;;;;;;4742799;30;20199;-76
2022/04/01 12:43:33;;;;;;;13.32;12.32;;;0.50;99.90;;;;;;4755937;30;20055;-76
2022/04/01 12:46:15;;;;;;;14.95;13.85;;;0.50;99.90;;;;;;4755612;30;20052;-76
2022/04/01 12:48:59;;;;;;;16.70;15.38;;;0.40;99.90;;;;;;4751843;30;20063;-76
2022/04/01 12:51:29;;;;;;;14.80;13.43;;;0.50;99.90;;;;;;4752112;30;20082;-76
2022/04/01 12:54:11;;;;;;;15.90;14.40;;;0.40;99.90;;;;;;4748149;30;20052;-77
2022/04/01 12:56:39;;;;;;;16.38;14.98;;;0.40;99.90;;;;;;4755283;30;20151;-76
2022/04/01 12:59:25;;;;;;;14.38;13.48;;;0.30;99.90;;;;;;4777667;29;20055;-77
2022/04/01 13:02:06;;;;;;;14.80;13.70;;;0.40;99.90;;;;;;4766763;29;20336;-77
2022/04/01 13:04:56;;;;;;;15.18;14.10;;;0.40;99.90;;;;;;4757745;30;20062;-77
2022/04/01 13:07:32;;;;;;;16.60;15.40;;;0.30;99.90;;;;;;4760245;30;20543;-77
2022/04/01 13:10:01;;;;;;;;;;;0.30;99.90;;;;;;4745081;30;20063;-77
2022/04/01 13:12:28;;;;;;;17.08;16.08;;;0.30;99.90;;;;;;4747503;30;20492;-77
2022/04/01 13:15:07;;;;;;;19.35;17.95;;;0.40;99.90;;;;;;4774667;29;20427;-77
2022/04/01 13:17:49;;;;;;;19.38;18.05;;;0.40;99.90;;;;;;4774085;30;20462;-79
2022/04/01 13:20:21;;;;;;;19.20;17.70;;;0.50;99.90;;;;;;4747439;30;20064;-79
2022/04/01 13:22:48;;;;;;;21.05;19.45;;;0.50;99.90;;;;;;4777349;30;20055;-76
2022/04/01 13:25:15;;;;;;;20.42;19.02;;;0.60;99.90;;;;;;4774093;29;20087;-77
2022/04/01 13:27:43;;;;;;;21.58;19.95;;;0.70;99.90;;;;;;4775144;29;20057;-77